sensor_id;sensor_type;location;lat;lon;timestamp;P1;durP1;ratioP1;P2;durP2;ratioP2
3993;SDS011;2011;48.238;13.948;2022-12-05T00:00:46;25.40;;;13.00;;
3993;SDS011;2011;48.238;13.948;2022-12-05T00:03:13;28.40;;;13.63;;
3993;SDS011;2011;48.238;13.948;2022-12-05T00:05:41;31.65;;;15.85;;
3993;SDS011;2011;48.238;13.948;2022-12-05T00:08:08;29.47;;;14.80;;
3993;SDS011;2011;48.238;13.948;2022-12-05T00:10:35;27.67;;;13.98;;
3993;SDS011;2011;48.238;13.948;2022-12-05T00:13:03;24.97;;;12.93;;
3993;SDS011;2011;48.238;13.948;2022-12-05T00:15:30;24.00;;;12.37;;
3993;SDS011;2011;48.238;13.948;2022-12-05T00:17:57;30.50;;;14.33;;
3993;SDS011;2011;48.238;13.948;2022-12-05T00:20:24;25.70;;;14.27;;
3993;SDS011;2011;48.238;13.948;2022-12-05T00:22:52;30.17;;;14.63;;
3993;SDS011;2011;48.238;13.948;2022-12-05T00:25:19;25.07;;;14.63;;
3993;SDS011;2011;48.238;13.948;2022-12-05T00:27:46;26.03;;;13.90;;
3993;SDS011;2011;48.238;13.948;2022-12-05T00:30:13;25.97;;;12.87;;
3993;SDS011;2011;48.238;13.948;2022-12-05T00:32:40;27.05;;;13.73;;
3993;SDS011;2011;48.238;13.948;2022-12-05T00:35:07;25.65;;;12.57;;
3993;SDS011;2011;48.238;13.948;2022-12-05T00:37:34;26.53;;;13.53;;
3993;SDS011;2011;48.238;13.948;2022-12-05T00:40:03;25.33;;;13.20;;
3993;SDS011;2011;48.238;13.948;2022-12-05T00:42:31;30.02;;;14.40;;
3993;SDS011;2011;48.238;13.948;2022-12-05T00:44:58;24.98;;;13.07;;
3993;SDS011;2011;48.238;13.948;2022-12-05T00:47:25;30.40;;;13.10;;
3993;SDS011;2011;48.238;13.948;2022-12-05T00:49:51;24.10;;;13.32;;
3993;SDS011;2011;48.238;13.948;2022-12-05T00:52:18;24.43;;;12.70;;
3993;SDS011;2011;48.238;13.948;2022-12-05T00:54:45;23.50;;;13.87;;
3993;SDS011;2011;48.238;13.948;2022-12-05T00:57:14;23.13;;;13.07;;
3993;SDS011;2011;48.238;13.948;2022-12-05T00:59:40;28.17;;;13.85;;
3993;SDS011;2011;48.238;13.948;2022-12-05T01:02:07;30.20;;;14.98;;
3993;SDS011;2011;48.238;13.948;2022-12-05T01:04:34;29.30;;;15.50;;
3993;SDS011;2011;48.238;13.948;2022-12-05T01:07:02;28.77;;;14.90;;
3993;SDS011;2011;48.238;13.948;2022-12-05T01:09:29;29.33;;;13.77;;
3993;SDS011;2011;48.238;13.948;2022-12-05T01:11:56;32.90;;;15.27;;
3993;SDS011;2011;48.238;13.948;2022-12-05T01:14:24;27.47;;;14.37;;
3993;SDS011;2011;48.238;13.948;2022-12-05T01:16:52;27.05;;;14.60;;
3993;SDS011;2011;48.238;13.948;2022-12-05T01:19:21;29.53;;;14.60;;
3993;SDS011;2011;48.238;13.948;2022-12-05T01:21:49;29.30;;;13.60;;
3993;SDS011;2011;48.238;13.948;2022-12-05T01:24:17;36.47;;;15.88;;
3993;SDS011;2011;48.238;13.948;2022-12-05T01:26:45;27.58;;;14.07;;
3993;SDS011;2011;48.238;13.948;2022-12-05T01:29:13;24.03;;;13.03;;
3993;SDS011;2011;48.238;13.948;2022-12-05T01:31:43;28.63;;;15.30;;
3993;SDS011;2011;48.238;13.948;2022-12-05T01:34:12;29.95;;;14.25;;
3993;SDS011;2011;48.238;13.948;2022-12-05T01:36:41;25.58;;;13.63;;
3993;SDS011;2011;48.238;13.948;2022-12-05T01:39:09;27.45;;;14.20;;
3993;SDS011;2011;48.238;13.948;2022-12-05T01:41:38;26.90;;;14.82;;
3993;SDS011;2011;48.238;13.948;2022-12-05T01:44:07;25.50;;;14.05;;
3993;SDS011;2011;48.238;13.948;2022-12-05T01:47:14;34.97;;;14.38;;
3993;SDS011;2011;48.238;13.948;2022-12-05T01:49:42;29.92;;;14.60;;
3993;SDS011;2011;48.238;13.948;2022-12-05T01:52:11;24.65;;;12.55;;
3993;SDS011;2011;48.238;13.948;2022-12-05T01:54:41;27.13;;;14.30;;
3993;SDS011;2011;48.238;13.948;2022-12-05T01:57:11;25.00;;;13.25;;
3993;SDS011;2011;48.238;13.948;2022-12-05T01:59:40;33.22;;;16.77;;
3993;SDS011;2011;48.238;13.948;2022-12-05T02:02:10;41.13;;;17.58;;
3993;SDS011;2011;48.238;13.948;2022-12-05T02:04:40;41.20;;;18.25;;
3993;SDS011;2011;48.238;13.948;2022-12-05T02:07:13;35.97;;;16.77;;
3993;SDS011;2011;48.238;13.948;2022-12-05T02:09:40;35.42;;;18.65;;
3993;SDS011;2011;48.238;13.948;2022-12-05T02:12:07;40.20;;;18.92;;
3993;SDS011;2011;48.238;13.948;2022-12-05T02:14:36;38.53;;;18.63;;
3993;SDS011;2011;48.238;13.948;2022-12-05T02:17:12;41.90;;;19.70;;
3993;SDS011;2011;48.238;13.948;2022-12-05T02:19:57;42.17;;;18.52;;
3993;SDS011;2011;48.238;13.948;2022-12-05T02:22:38;37.80;;;17.70;;
3993;SDS011;2011;48.238;13.948;2022-12-05T02:28:39;35.70;;;17.83;;
3993;SDS011;2011;48.238;13.948;2022-12-05T02:31:21;31.30;;;16.40;;
3993;SDS011;2011;48.238;13.948;2022-12-05T02:33:58;35.28;;;17.17;;
3993;SDS011;2011;48.238;13.948;2022-12-05T02:36:32;29.73;;;14.52;;
3993;SDS011;2011;48.238;13.948;2022-12-05T02:39:05;45.35;;;19.50;;
3993;SDS011;2011;48.238;13.948;2022-12-05T02:41:40;43.03;;;19.55;;
3993;SDS011;2011;48.238;13.948;2022-12-05T02:44:15;43.03;;;18.77;;
3993;SDS011;2011;48.238;13.948;2022-12-05T02:46:47;37.83;;;18.00;;
3993;SDS011;2011;48.238;13.948;2022-12-05T02:49:18;31.85;;;17.80;;
3993;SDS011;2011;48.238;13.948;2022-12-05T02:51:49;37.88;;;19.23;;
3993;SDS011;2011;48.238;13.948;2022-12-05T02:54:21;34.70;;;17.70;;
3993;SDS011;2011;48.238;13.948;2022-12-05T02:56:51;40.83;;;17.02;;
3993;SDS011;2011;48.238;13.948;2022-12-05T02:59:19;32.17;;;17.35;;
3993;SDS011;2011;48.238;13.948;2022-12-05T03:01:47;34.50;;;17.65;;
3993;SDS011;2011;48.238;13.948;2022-12-05T03:04:14;54.28;;;21.02;;
3993;SDS011;2011;48.238;13.948;2022-12-05T03:06:43;46.10;;;19.35;;
3993;SDS011;2011;48.238;13.948;2022-12-05T03:09:15;42.15;;;19.40;;
3993;SDS011;2011;48.238;13.948;2022-12-05T03:11:47;54.00;;;20.98;;
3993;SDS011;2011;48.238;13.948;2022-12-05T03:14:18;47.28;;;21.10;;
3993;SDS011;2011;48.238;13.948;2022-12-05T03:16:49;41.63;;;19.02;;
3993;SDS011;2011;48.238;13.948;2022-12-05T03:19:19;40.65;;;18.95;;
3993;SDS011;2011;48.238;13.948;2022-12-05T03:21:51;35.53;;;17.20;;
3993;SDS011;2011;48.238;13.948;2022-12-05T03:24:21;37.80;;;19.30;;
3993;SDS011;2011;48.238;13.948;2022-12-05T03:26:49;34.80;;;18.45;;
3993;SDS011;2011;48.238;13.948;2022-12-05T03:29:25;40.37;;;18.87;;
3993;SDS011;2011;48.238;13.948;2022-12-05T03:32:00;45.40;;;20.35;;
3993;SDS011;2011;48.238;13.948;2022-12-05T03:34:40;43.70;;;21.17;;
3993;SDS011;2011;48.238;13.948;2022-12-05T03:37:14;38.88;;;18.33;;
3993;SDS011;2011;48.238;13.948;2022-12-05T03:39:47;49.72;;;21.35;;
3993;SDS011;2011;48.238;13.948;2022-12-05T03:42:22;50.80;;;21.90;;
3993;SDS011;2011;48.238;13.948;2022-12-05T03:44:56;46.85;;;21.90;;
3993;SDS011;2011;48.238;13.948;2022-12-05T03:47:31;45.67;;;20.73;;
3993;SDS011;2011;48.238;13.948;2022-12-05T03:50:07;44.38;;;20.50;;
3993;SDS011;2011;48.238;13.948;2022-12-05T03:52:39;50.15;;;21.45;;
3993;SDS011;2011;48.238;13.948;2022-12-05T03:55:09;59.03;;;22.57;;
3993;SDS011;2011;48.238;13.948;2022-12-05T03:57:40;42.15;;;19.65;;
3993;SDS011;2011;48.238;13.948;2022-12-05T04:00:11;49.33;;;22.40;;
3993;SDS011;2011;48.238;13.948;2022-12-05T04:02:44;55.85;;;23.15;;
3993;SDS011;2011;48.238;13.948;2022-12-05T04:05:17;43.40;;;20.63;;
3993;SDS011;2011;48.238;13.948;2022-12-05T04:07:48;48.45;;;21.25;;
3993;SDS011;2011;48.238;13.948;2022-12-05T04:10:19;50.22;;;23.55;;
3993;SDS011;2011;48.238;13.948;2022-12-05T04:12:50;60.13;;;24.60;;
3993;SDS011;2011;48.238;13.948;2022-12-05T04:15:20;50.78;;;22.30;;
3993;SDS011;2011;48.238;13.948;2022-12-05T04:17:51;68.87;;;22.90;;
3993;SDS011;2011;48.238;13.948;2022-12-05T04:20:22;56.57;;;23.90;;
3993;SDS011;2011;48.238;13.948;2022-12-05T04:23:12;62.93;;;25.10;;
3993;SDS011;2011;48.238;13.948;2022-12-05T04:25:43;49.53;;;22.40;;
3993;SDS011;2011;48.238;13.948;2022-12-05T04:28:20;50.63;;;22.55;;
3993;SDS011;2011;48.238;13.948;2022-12-05T04:30:53;54.30;;;22.38;;
3993;SDS011;2011;48.238;13.948;2022-12-05T04:33:30;61.67;;;25.95;;
3993;SDS011;2011;48.238;13.948;2022-12-05T04:36:09;52.65;;;23.35;;
3993;SDS011;2011;48.238;13.948;2022-12-05T04:38:40;44.58;;;22.17;;
3993;SDS011;2011;48.238;13.948;2022-12-05T04:41:12;54.70;;;23.45;;
3993;SDS011;2011;48.238;13.948;2022-12-05T04:43:41;51.22;;;23.58;;
3993;SDS011;2011;48.238;13.948;2022-12-05T04:46:12;53.10;;;22.23;;
3993;SDS011;2011;48.238;13.948;2022-12-05T04:48:43;66.47;;;24.98;;
3993;SDS011;2011;48.238;13.948;2022-12-05T04:51:15;49.20;;;22.00;;
3993;SDS011;2011;48.238;13.948;2022-12-05T04:53:46;45.75;;;21.83;;
3993;SDS011;2011;48.238;13.948;2022-12-05T04:56:17;54.28;;;23.92;;
3993;SDS011;2011;48.238;13.948;2022-12-05T04:58:46;44.97;;;21.67;;
3993;SDS011;2011;48.238;13.948;2022-12-05T05:01:14;54.40;;;24.35;;
3993;SDS011;2011;48.238;13.948;2022-12-05T05:03:47;50.58;;;23.48;;
3993;SDS011;2011;48.238;13.948;2022-12-05T05:06:17;62.40;;;24.53;;
3993;SDS011;2011;48.238;13.948;2022-12-05T05:08:45;45.60;;;22.13;;
3993;SDS011;2011;48.238;13.948;2022-12-05T05:11:15;50.47;;;22.98;;
3993;SDS011;2011;48.238;13.948;2022-12-05T05:13:44;47.28;;;22.63;;
3993;SDS011;2011;48.238;13.948;2022-12-05T05:16:13;41.65;;;20.33;;
3993;SDS011;2011;48.238;13.948;2022-12-05T05:18:43;49.30;;;23.42;;
3993;SDS011;2011;48.238;13.948;2022-12-05T05:21:19;53.10;;;24.25;;
3993;SDS011;2011;48.238;13.948;2022-12-05T05:23:47;46.63;;;21.73;;
3993;SDS011;2011;48.238;13.948;2022-12-05T05:26:15;43.20;;;21.77;;
3993;SDS011;2011;48.238;13.948;2022-12-05T05:28:42;48.90;;;23.77;;
3993;SDS011;2011;48.238;13.948;2022-12-05T05:31:09;52.15;;;23.85;;
3993;SDS011;2011;48.238;13.948;2022-12-05T05:33:37;46.83;;;22.83;;
3993;SDS011;2011;48.238;13.948;2022-12-05T05:36:04;50.00;;;23.40;;
3993;SDS011;2011;48.238;13.948;2022-12-05T05:38:35;45.80;;;22.95;;
3993;SDS011;2011;48.238;13.948;2022-12-05T05:41:03;49.03;;;23.92;;
3993;SDS011;2011;48.238;13.948;2022-12-05T05:43:30;52.53;;;24.30;;
3993;SDS011;2011;48.238;13.948;2022-12-05T05:45:57;45.13;;;22.70;;
3993;SDS011;2011;48.238;13.948;2022-12-05T05:48:24;47.70;;;22.98;;
3993;SDS011;2011;48.238;13.948;2022-12-05T05:50:51;52.23;;;24.93;;
3993;SDS011;2011;48.238;13.948;2022-12-05T05:53:18;49.70;;;24.10;;
3993;SDS011;2011;48.238;13.948;2022-12-05T05:55:46;58.25;;;24.30;;
3993;SDS011;2011;48.238;13.948;2022-12-05T05:58:13;67.88;;;26.02;;
3993;SDS011;2011;48.238;13.948;2022-12-05T06:00:40;52.35;;;24.85;;
3993;SDS011;2011;48.238;13.948;2022-12-05T06:03:07;71.10;;;26.70;;
3993;SDS011;2011;48.238;13.948;2022-12-05T06:05:34;49.43;;;23.17;;
3993;SDS011;2011;48.238;13.948;2022-12-05T06:08:00;47.73;;;23.30;;
3993;SDS011;2011;48.238;13.948;2022-12-05T06:10:27;65.70;;;29.20;;
3993;SDS011;2011;48.238;13.948;2022-12-05T06:12:56;61.57;;;27.87;;
3993;SDS011;2011;48.238;13.948;2022-12-05T06:15:23;62.17;;;27.63;;
3993;SDS011;2011;48.238;13.948;2022-12-05T06:17:50;67.18;;;29.05;;
3993;SDS011;2011;48.238;13.948;2022-12-05T06:20:17;67.67;;;29.57;;
3993;SDS011;2011;48.238;13.948;2022-12-05T06:22:44;93.03;;;35.70;;
3993;SDS011;2011;48.238;13.948;2022-12-05T06:25:11;73.78;;;30.08;;
3993;SDS011;2011;48.238;13.948;2022-12-05T06:27:37;80.35;;;32.95;;
3993;SDS011;2011;48.238;13.948;2022-12-05T06:30:06;93.00;;;30.77;;
3993;SDS011;2011;48.238;13.948;2022-12-05T06:32:34;87.45;;;32.22;;
3993;SDS011;2011;48.238;13.948;2022-12-05T06:35:01;81.73;;;30.13;;
3993;SDS011;2011;48.238;13.948;2022-12-05T06:37:35;81.03;;;31.57;;
3993;SDS011;2011;48.238;13.948;2022-12-05T06:40:03;85.97;;;28.03;;
3993;SDS011;2011;48.238;13.948;2022-12-05T06:42:30;90.50;;;31.25;;
3993;SDS011;2011;48.238;13.948;2022-12-05T06:44:57;95.07;;;33.43;;
3993;SDS011;2011;48.238;13.948;2022-12-05T06:47:26;72.90;;;28.57;;
3993;SDS011;2011;48.238;13.948;2022-12-05T06:49:53;88.13;;;31.13;;
3993;SDS011;2011;48.238;13.948;2022-12-05T06:52:20;92.93;;;31.83;;
3993;SDS011;2011;48.238;13.948;2022-12-05T06:54:47;84.60;;;28.63;;
3993;SDS011;2011;48.238;13.948;2022-12-05T06:57:13;80.45;;;27.83;;
3993;SDS011;2011;48.238;13.948;2022-12-05T06:59:41;68.17;;;26.13;;
3993;SDS011;2011;48.238;13.948;2022-12-05T07:02:08;69.17;;;27.30;;
3993;SDS011;2011;48.238;13.948;2022-12-05T07:04:37;74.43;;;27.57;;
3993;SDS011;2011;48.238;13.948;2022-12-05T07:07:04;76.17;;;29.77;;
3993;SDS011;2011;48.238;13.948;2022-12-05T07:09:32;95.47;;;30.90;;
3993;SDS011;2011;48.238;13.948;2022-12-05T07:12:12;78.80;;;29.70;;
3993;SDS011;2011;48.238;13.948;2022-12-05T07:14:41;74.47;;;27.47;;
3993;SDS011;2011;48.238;13.948;2022-12-05T07:17:08;73.37;;;28.60;;
3993;SDS011;2011;48.238;13.948;2022-12-05T07:19:35;76.13;;;26.97;;
3993;SDS011;2011;48.238;13.948;2022-12-05T07:22:04;76.68;;;29.08;;
3993;SDS011;2011;48.238;13.948;2022-12-05T07:24:31;69.53;;;28.30;;
3993;SDS011;2011;48.238;13.948;2022-12-05T07:26:58;70.90;;;27.27;;
3993;SDS011;2011;48.238;13.948;2022-12-05T07:29:25;79.37;;;28.00;;
3993;SDS011;2011;48.238;13.948;2022-12-05T07:31:52;78.22;;;29.23;;
3993;SDS011;2011;48.238;13.948;2022-12-05T07:34:19;78.97;;;30.03;;
3993;SDS011;2011;48.238;13.948;2022-12-05T07:36:47;75.33;;;29.00;;
3993;SDS011;2011;48.238;13.948;2022-12-05T07:39:14;83.10;;;30.57;;
3993;SDS011;2011;48.238;13.948;2022-12-05T07:41:41;65.30;;;23.63;;
3993;SDS011;2011;48.238;13.948;2022-12-05T07:44:08;39.70;;;17.67;;
3993;SDS011;2011;48.238;13.948;2022-12-05T07:46:36;40.40;;;17.40;;
3993;SDS011;2011;48.238;13.948;2022-12-05T07:49:04;39.80;;;16.20;;
3993;SDS011;2011;48.238;13.948;2022-12-05T07:51:32;43.23;;;16.70;;
3993;SDS011;2011;48.238;13.948;2022-12-05T07:54:00;45.40;;;16.67;;
3993;SDS011;2011;48.238;13.948;2022-12-05T07:56:28;45.27;;;16.30;;
3993;SDS011;2011;48.238;13.948;2022-12-05T07:58:54;43.60;;;16.60;;
3993;SDS011;2011;48.238;13.948;2022-12-05T08:01:22;41.10;;;15.20;;
3993;SDS011;2011;48.238;13.948;2022-12-05T08:03:51;45.07;;;16.93;;
3993;SDS011;2011;48.238;13.948;2022-12-05T08:06:19;39.97;;;17.23;;
3993;SDS011;2011;48.238;13.948;2022-12-05T08:08:48;36.80;;;15.30;;
3993;SDS011;2011;48.238;13.948;2022-12-05T08:11:17;44.00;;;16.07;;
3993;SDS011;2011;48.238;13.948;2022-12-05T08:13:47;32.23;;;15.53;;
3993;SDS011;2011;48.238;13.948;2022-12-05T08:16:14;42.60;;;15.97;;
3993;SDS011;2011;48.238;13.948;2022-12-05T08:18:43;40.67;;;16.80;;
3993;SDS011;2011;48.238;13.948;2022-12-05T08:21:11;37.10;;;16.37;;
3993;SDS011;2011;48.238;13.948;2022-12-05T08:23:39;46.93;;;15.50;;
3993;SDS011;2011;48.238;13.948;2022-12-05T08:26:08;37.90;;;14.77;;
3993;SDS011;2011;48.238;13.948;2022-12-05T08:28:38;38.43;;;15.17;;
3993;SDS011;2011;48.238;13.948;2022-12-05T08:31:05;38.97;;;16.47;;
3993;SDS011;2011;48.238;13.948;2022-12-05T08:33:34;38.13;;;14.03;;
3993;SDS011;2011;48.238;13.948;2022-12-05T08:36:00;31.17;;;15.23;;
3993;SDS011;2011;48.238;13.948;2022-12-05T08:38:28;33.93;;;15.03;;
3993;SDS011;2011;48.238;13.948;2022-12-05T08:40:55;34.67;;;15.17;;
3993;SDS011;2011;48.238;13.948;2022-12-05T08:43:25;39.88;;;16.15;;
3993;SDS011;2011;48.238;13.948;2022-12-05T08:45:53;33.30;;;13.73;;
3993;SDS011;2011;48.238;13.948;2022-12-05T08:48:20;35.57;;;14.70;;
3993;SDS011;2011;48.238;13.948;2022-12-05T08:50:47;34.40;;;15.20;;
3993;SDS011;2011;48.238;13.948;2022-12-05T08:53:14;39.23;;;14.73;;
3993;SDS011;2011;48.238;13.948;2022-12-05T08:55:42;37.63;;;13.07;;
3993;SDS011;2011;48.238;13.948;2022-12-05T08:58:09;26.90;;;13.20;;
3993;SDS011;2011;48.238;13.948;2022-12-05T09:00:36;35.88;;;15.75;;
3993;SDS011;2011;48.238;13.948;2022-12-05T09:03:05;38.20;;;15.40;;
3993;SDS011;2011;48.238;13.948;2022-12-05T09:05:32;27.27;;;13.27;;
3993;SDS011;2011;48.238;13.948;2022-12-05T09:07:59;32.33;;;14.17;;
3993;SDS011;2011;48.238;13.948;2022-12-05T09:10:26;29.30;;;14.33;;
3993;SDS011;2011;48.238;13.948;2022-12-05T09:12:53;30.02;;;13.70;;
3993;SDS011;2011;48.238;13.948;2022-12-05T09:15:20;33.20;;;15.20;;
3993;SDS011;2011;48.238;13.948;2022-12-05T09:17:47;27.67;;;13.20;;
3993;SDS011;2011;48.238;13.948;2022-12-05T09:20:15;34.63;;;14.80;;
3993;SDS011;2011;48.238;13.948;2022-12-05T09:22:42;31.67;;;14.80;;
3993;SDS011;2011;48.238;13.948;2022-12-05T09:25:09;34.43;;;14.77;;
3993;SDS011;2011;48.238;13.948;2022-12-05T09:27:36;30.67;;;14.73;;
3993;SDS011;2011;48.238;13.948;2022-12-05T09:30:03;36.70;;;14.67;;
3993;SDS011;2011;48.238;13.948;2022-12-05T09:32:31;31.10;;;13.40;;
3993;SDS011;2011;48.238;13.948;2022-12-05T09:34:58;31.73;;;14.70;;
3993;SDS011;2011;48.238;13.948;2022-12-05T09:37:26;33.57;;;14.13;;
3993;SDS011;2011;48.238;13.948;2022-12-05T09:39:53;32.83;;;13.60;;
3993;SDS011;2011;48.238;13.948;2022-12-05T09:42:27;29.47;;;13.30;;
3993;SDS011;2011;48.238;13.948;2022-12-05T09:47:49;34.40;;;14.70;;
3993;SDS011;2011;48.238;13.948;2022-12-05T09:50:23;28.87;;;13.23;;
3993;SDS011;2011;48.238;13.948;2022-12-05T09:52:57;27.30;;;12.90;;
3993;SDS011;2011;48.238;13.948;2022-12-05T09:55:38;28.53;;;12.80;;
3993;SDS011;2011;48.238;13.948;2022-12-05T09:58:25;28.17;;;12.03;;
3993;SDS011;2011;48.238;13.948;2022-12-05T10:00:58;22.63;;;11.60;;
3993;SDS011;2011;48.238;13.948;2022-12-05T10:03:29;24.47;;;11.57;;
3993;SDS011;2011;48.238;13.948;2022-12-05T10:06:08;23.93;;;10.60;;
3993;SDS011;2011;48.238;13.948;2022-12-05T10:08:54;26.30;;;11.27;;
3993;SDS011;2011;48.238;13.948;2022-12-05T10:11:32;19.80;;;10.33;;
3993;SDS011;2011;48.238;13.948;2022-12-05T10:14:06;24.10;;;10.87;;
3993;SDS011;2011;48.238;13.948;2022-12-05T10:16:36;23.50;;;11.60;;
3993;SDS011;2011;48.238;13.948;2022-12-05T10:19:09;23.40;;;10.30;;
3993;SDS011;2011;48.238;13.948;2022-12-05T10:21:40;21.73;;;10.63;;
3993;SDS011;2011;48.238;13.948;2022-12-05T10:24:19;21.17;;;11.07;;
3993;SDS011;2011;48.238;13.948;2022-12-05T10:26:52;24.33;;;12.17;;
3993;SDS011;2011;48.238;13.948;2022-12-05T10:29:25;22.40;;;11.80;;
3993;SDS011;2011;48.238;13.948;2022-12-05T10:32:02;24.13;;;12.20;;
3993;SDS011;2011;48.238;13.948;2022-12-05T10:34:36;29.13;;;11.20;;
3993;SDS011;2011;48.238;13.948;2022-12-05T10:37:07;25.60;;;11.77;;
3993;SDS011;2011;48.238;13.948;2022-12-05T10:39:40;27.30;;;11.50;;
3993;SDS011;2011;48.238;13.948;2022-12-05T10:42:09;25.57;;;11.37;;
3993;SDS011;2011;48.238;13.948;2022-12-05T10:44:40;20.90;;;11.90;;
3993;SDS011;2011;48.238;13.948;2022-12-05T10:47:07;26.67;;;12.97;;
3993;SDS011;2011;48.238;13.948;2022-12-05T10:49:35;29.40;;;13.13;;
3993;SDS011;2011;48.238;13.948;2022-12-05T10:52:03;28.07;;;12.97;;
3993;SDS011;2011;48.238;13.948;2022-12-05T10:54:31;27.03;;;13.17;;
3993;SDS011;2011;48.238;13.948;2022-12-05T10:57:18;28.60;;;12.97;;
3993;SDS011;2011;48.238;13.948;2022-12-05T10:59:47;30.13;;;13.20;;
3993;SDS011;2011;48.238;13.948;2022-12-05T11:02:17;28.10;;;14.00;;
3993;SDS011;2011;48.238;13.948;2022-12-05T11:04:48;28.77;;;13.47;;
3993;SDS011;2011;48.238;13.948;2022-12-05T11:07:23;25.90;;;13.10;;
3993;SDS011;2011;48.238;13.948;2022-12-05T11:09:55;30.93;;;15.07;;
3993;SDS011;2011;48.238;13.948;2022-12-05T11:12:23;27.53;;;12.50;;
3993;SDS011;2011;48.238;13.948;2022-12-05T11:14:53;27.58;;;12.90;;
3993;SDS011;2011;48.238;13.948;2022-12-05T11:17:22;29.47;;;13.90;;
3993;SDS011;2011;48.238;13.948;2022-12-05T11:19:51;23.53;;;12.00;;
3993;SDS011;2011;48.238;13.948;2022-12-05T11:22:18;28.67;;;13.43;;
3993;SDS011;2011;48.238;13.948;2022-12-05T11:24:47;28.03;;;11.87;;
3993;SDS011;2011;48.238;13.948;2022-12-05T11:27:24;27.53;;;12.50;;
3993;SDS011;2011;48.238;13.948;2022-12-05T11:29:56;23.17;;;12.37;;
3993;SDS011;2011;48.238;13.948;2022-12-05T11:32:25;28.80;;;12.35;;
3993;SDS011;2011;48.238;13.948;2022-12-05T11:34:55;23.13;;;13.07;;
3993;SDS011;2011;48.238;13.948;2022-12-05T11:37:30;24.17;;;12.02;;
3993;SDS011;2011;48.238;13.948;2022-12-05T11:40:04;22.83;;;9.57;;
3993;SDS011;2011;48.238;13.948;2022-12-05T11:42:42;27.90;;;11.27;;
3993;SDS011;2011;48.238;13.948;2022-12-05T11:45:24;23.43;;;11.70;;
3993;SDS011;2011;48.238;13.948;2022-12-05T11:48:05;19.80;;;10.50;;
3993;SDS011;2011;48.238;13.948;2022-12-05T11:50:59;21.93;;;11.73;;
3993;SDS011;2011;48.238;13.948;2022-12-05T11:53:39;27.20;;;11.00;;
3993;SDS011;2011;48.238;13.948;2022-12-05T11:56:28;21.80;;;12.20;;
3993;SDS011;2011;48.238;13.948;2022-12-05T12:02:02;26.77;;;11.97;;
3993;SDS011;2011;48.238;13.948;2022-12-05T12:04:45;26.83;;;11.73;;
3993;SDS011;2011;48.238;13.948;2022-12-05T12:07:19;22.60;;;11.52;;
3993;SDS011;2011;48.238;13.948;2022-12-05T12:10:09;23.80;;;11.70;;
3993;SDS011;2011;48.238;13.948;2022-12-05T12:12:49;20.00;;;10.40;;
3993;SDS011;2011;48.238;13.948;2022-12-05T12:15:27;21.50;;;11.77;;
3993;SDS011;2011;48.238;13.948;2022-12-05T12:18:06;21.93;;;11.07;;
3993;SDS011;2011;48.238;13.948;2022-12-05T12:20:41;18.77;;;9.63;;
3993;SDS011;2011;48.238;13.948;2022-12-05T12:23:27;18.30;;;9.53;;
3993;SDS011;2011;48.238;13.948;2022-12-05T12:26:08;20.80;;;9.52;;
3993;SDS011;2011;48.238;13.948;2022-12-05T12:28:40;19.50;;;8.60;;
3993;SDS011;2011;48.238;13.948;2022-12-05T12:31:18;15.83;;;8.93;;
3993;SDS011;2011;48.238;13.948;2022-12-05T12:33:59;19.93;;;9.57;;
3993;SDS011;2011;48.238;13.948;2022-12-05T12:36:35;15.77;;;8.20;;
3993;SDS011;2011;48.238;13.948;2022-12-05T12:39:14;15.93;;;8.45;;
3993;SDS011;2011;48.238;13.948;2022-12-05T12:41:57;14.60;;;8.60;;
3993;SDS011;2011;48.238;13.948;2022-12-05T12:44:38;15.87;;;9.10;;
3993;SDS011;2011;48.238;13.948;2022-12-05T12:47:30;30.07;;;10.20;;
3993;SDS011;2011;48.238;13.948;2022-12-05T12:50:10;20.33;;;10.40;;
3993;SDS011;2011;48.238;13.948;2022-12-05T12:55:49;17.75;;;9.13;;
3993;SDS011;2011;48.238;13.948;2022-12-05T12:58:27;19.80;;;10.10;;
3993;SDS011;2011;48.238;13.948;2022-12-05T13:01:07;17.77;;;9.30;;
3993;SDS011;2011;48.238;13.948;2022-12-05T13:03:42;21.40;;;10.60;;
3993;SDS011;2011;48.238;13.948;2022-12-05T13:06:17;18.50;;;9.40;;
3993;SDS011;2011;48.238;13.948;2022-12-05T13:08:49;16.27;;;8.80;;
3993;SDS011;2011;48.238;13.948;2022-12-05T13:11:20;23.70;;;9.63;;
3993;SDS011;2011;48.238;13.948;2022-12-05T13:13:48;17.02;;;8.65;;
3993;SDS011;2011;48.238;13.948;2022-12-05T13:16:20;19.20;;;9.27;;
3993;SDS011;2011;48.238;13.948;2022-12-05T13:18:50;20.20;;;9.70;;
3993;SDS011;2011;48.238;13.948;2022-12-05T13:21:20;18.17;;;9.13;;
3993;SDS011;2011;48.238;13.948;2022-12-05T13:23:48;18.33;;;9.88;;
3993;SDS011;2011;48.238;13.948;2022-12-05T13:26:17;18.17;;;9.93;;
3993;SDS011;2011;48.238;13.948;2022-12-05T13:28:48;18.07;;;10.10;;
3993;SDS011;2011;48.238;13.948;2022-12-05T13:31:18;24.33;;;10.93;;
3993;SDS011;2011;48.238;13.948;2022-12-05T13:34:00;19.80;;;9.43;;
3993;SDS011;2011;48.238;13.948;2022-12-05T13:36:29;28.33;;;11.40;;
3993;SDS011;2011;48.238;13.948;2022-12-05T13:39:22;22.33;;;10.73;;
3993;SDS011;2011;48.238;13.948;2022-12-05T13:42:12;24.80;;;10.50;;
3993;SDS011;2011;48.238;13.948;2022-12-05T13:44:48;23.87;;;11.13;;
3993;SDS011;2011;48.238;13.948;2022-12-05T13:47:20;22.10;;;10.80;;
3993;SDS011;2011;48.238;13.948;2022-12-05T13:49:54;21.77;;;10.63;;
3993;SDS011;2011;48.238;13.948;2022-12-05T13:52:29;21.87;;;10.10;;
3993;SDS011;2011;48.238;13.948;2022-12-05T13:54:57;21.27;;;10.70;;
3993;SDS011;2011;48.238;13.948;2022-12-05T13:57:44;24.33;;;10.43;;
3993;SDS011;2011;48.238;13.948;2022-12-05T14:00:27;25.40;;;10.60;;
3993;SDS011;2011;48.238;13.948;2022-12-05T14:02:59;30.20;;;12.07;;
3993;SDS011;2011;48.238;13.948;2022-12-05T14:05:34;23.40;;;10.47;;
3993;SDS011;2011;48.238;13.948;2022-12-05T14:11:13;24.60;;;10.20;;
3993;SDS011;2011;48.238;13.948;2022-12-05T14:13:41;23.50;;;10.30;;
3993;SDS011;2011;48.238;13.948;2022-12-05T14:22:17;18.13;;;9.70;;
3993;SDS011;2011;48.238;13.948;2022-12-05T14:24:56;24.67;;;10.23;;
3993;SDS011;2011;48.238;13.948;2022-12-05T14:27:36;20.23;;;8.47;;
3993;SDS011;2011;48.238;13.948;2022-12-05T14:33:00;18.33;;;8.47;;
3993;SDS011;2011;48.238;13.948;2022-12-05T14:35:28;21.07;;;10.20;;
3993;SDS011;2011;48.238;13.948;2022-12-05T14:37:57;23.50;;;9.57;;
3993;SDS011;2011;48.238;13.948;2022-12-05T14:40:28;24.25;;;9.75;;
3993;SDS011;2011;48.238;13.948;2022-12-05T14:42:59;21.63;;;9.20;;
3993;SDS011;2011;48.238;13.948;2022-12-05T14:45:32;22.58;;;10.20;;
3993;SDS011;2011;48.238;13.948;2022-12-05T14:48:03;18.40;;;8.93;;
3993;SDS011;2011;48.238;13.948;2022-12-05T14:50:48;21.70;;;10.77;;
3993;SDS011;2011;48.238;13.948;2022-12-05T14:53:28;21.30;;;9.90;;
3993;SDS011;2011;48.238;13.948;2022-12-05T14:56:01;24.23;;;9.07;;
3993;SDS011;2011;48.238;13.948;2022-12-05T14:58:34;20.70;;;10.27;;
3993;SDS011;2011;48.238;13.948;2022-12-05T15:01:07;24.93;;;10.33;;
3993;SDS011;2011;48.238;13.948;2022-12-05T15:03:39;20.77;;;10.73;;
3993;SDS011;2011;48.238;13.948;2022-12-05T15:06:13;23.03;;;10.70;;
3993;SDS011;2011;48.238;13.948;2022-12-05T15:08:43;22.30;;;10.07;;
3993;SDS011;2011;48.238;13.948;2022-12-05T15:11:14;21.52;;;10.00;;
3993;SDS011;2011;48.238;13.948;2022-12-05T15:13:54;27.40;;;11.07;;
3993;SDS011;2011;48.238;13.948;2022-12-05T15:16:23;23.23;;;9.83;;
3993;SDS011;2011;48.238;13.948;2022-12-05T15:18:55;24.87;;;10.87;;
3993;SDS011;2011;48.238;13.948;2022-12-05T15:21:25;20.77;;;10.40;;
3993;SDS011;2011;48.238;13.948;2022-12-05T15:23:58;20.37;;;10.20;;